sensor_id;sensor_type;location;lat;lon;timestamp;P1;durP1;ratioP1;P2;durP2;ratioP2
59093;SDS011;44880;52.814;18.270;2023-04-03T00:00:41;8.00;;;1.80;;
59093;SDS011;44880;52.814;18.270;2023-04-03T00:03:17;10.50;;;1.80;;
59093;SDS011;44880;52.814;18.270;2023-04-03T00:05:49;10.30;;;2.40;;
59093;SDS011;44880;52.814;18.270;2023-04-03T00:08:21;11.50;;;2.10;;
59093;SDS011;44880;52.814;18.270;2023-04-03T00:10:53;8.50;;;1.90;;
59093;SDS011;44880;52.814;18.270;2023-04-03T00:13:24;9.80;;;2.00;;
59093;SDS011;44880;52.814;18.270;2023-04-03T00:18:26;11.20;;;2.30;;
59093;SDS011;44880;52.814;18.270;2023-04-03T00:20:58;15.20;;;2.30;;
59093;SDS011;44880;52.814;18.270;2023-04-03T00:23:30;8.70;;;2.20;;
59093;SDS011;44880;52.814;18.270;2023-04-03T00:26:02;8.40;;;2.10;;
59093;SDS011;44880;52.814;18.270;2023-04-03T00:28:34;8.30;;;1.90;;
59093;SDS011;44880;52.814;18.270;2023-04-03T00:31:05;9.60;;;2.30;;
59093;SDS011;44880;52.814;18.270;2023-04-03T00:33:37;9.30;;;1.90;;
59093;SDS011;44880;52.814;18.270;2023-04-03T00:36:09;6.50;;;1.80;;
59093;SDS011;44880;52.814;18.270;2023-04-03T00:38:42;7.30;;;1.90;;
59093;SDS011;44880;52.814;18.270;2023-04-03T00:41:13;8.10;;;1.90;;
59093;SDS011;44880;52.814;18.270;2023-04-03T00:43:46;6.90;;;2.10;;
59093;SDS011;44880;52.814;18.270;2023-04-03T00:46:18;8.20;;;1.80;;
59093;SDS011;44880;52.814;18.270;2023-04-03T00:48:50;9.00;;;2.20;;
59093;SDS011;44880;52.814;18.270;2023-04-03T00:51:23;9.70;;;2.00;;
59093;SDS011;44880;52.814;18.270;2023-04-03T00:53:56;10.60;;;2.20;;
59093;SDS011;44880;52.814;18.270;2023-04-03T00:56:30;5.80;;;1.70;;
59093;SDS011;44880;52.814;18.270;2023-04-03T01:01:34;8.50;;;1.90;;
59093;SDS011;44880;52.814;18.270;2023-04-03T01:06:36;9.60;;;2.10;;
59093;SDS011;44880;52.814;18.270;2023-04-03T01:09:09;12.80;;;2.30;;
59093;SDS011;44880;52.814;18.270;2023-04-03T01:14:11;7.60;;;1.80;;
59093;SDS011;44880;52.814;18.270;2023-04-03T01:16:50;10.90;;;2.20;;
59093;SDS011;44880;52.814;18.270;2023-04-03T01:19:23;8.60;;;2.40;;
59093;SDS011;44880;52.814;18.270;2023-04-03T01:22:03;8.30;;;2.50;;
59093;SDS011;44880;52.814;18.270;2023-04-03T01:24:41;7.90;;;1.90;;
59093;SDS011;44880;52.814;18.270;2023-04-03T01:27:15;9.20;;;1.80;;
59093;SDS011;44880;52.814;18.270;2023-04-03T01:29:46;9.90;;;1.70;;
59093;SDS011;44880;52.814;18.270;2023-04-03T01:32:20;6.70;;;1.70;;
59093;SDS011;44880;52.814;18.270;2023-04-03T01:34:51;9.40;;;2.10;;
59093;SDS011;44880;52.814;18.270;2023-04-03T01:37:23;8.00;;;1.90;;
59093;SDS011;44880;52.814;18.270;2023-04-03T01:39:55;7.90;;;1.50;;
59093;SDS011;44880;52.814;18.270;2023-04-03T01:42:26;8.60;;;1.70;;
59093;SDS011;44880;52.814;18.270;2023-04-03T01:45:03;10.60;;;1.80;;
59093;SDS011;44880;52.814;18.270;2023-04-03T01:47:35;9.30;;;2.00;;
59093;SDS011;44880;52.814;18.270;2023-04-03T01:52:39;8.50;;;2.00;;
59093;SDS011;44880;52.814;18.270;2023-04-03T01:55:10;8.70;;;1.80;;
59093;SDS011;44880;52.814;18.270;2023-04-03T01:57:43;7.90;;;1.70;;
59093;SDS011;44880;52.814;18.270;2023-04-03T02:02:46;8.50;;;2.10;;
59093;SDS011;44880;52.814;18.270;2023-04-03T02:07:48;7.40;;;1.80;;
59093;SDS011;44880;52.814;18.270;2023-04-03T02:10:20;9.70;;;2.00;;
59093;SDS011;44880;52.814;18.270;2023-04-03T02:12:51;10.30;;;2.30;;
59093;SDS011;44880;52.814;18.270;2023-04-03T02:17:53;8.40;;;1.90;;
59093;SDS011;44880;52.814;18.270;2023-04-03T02:20:25;15.40;;;2.70;;
59093;SDS011;44880;52.814;18.270;2023-04-03T02:25:27;8.20;;;2.30;;
59093;SDS011;44880;52.814;18.270;2023-04-03T02:27:59;7.30;;;1.70;;
59093;SDS011;44880;52.814;18.270;2023-04-03T02:30:32;10.50;;;2.20;;
59093;SDS011;44880;52.814;18.270;2023-04-03T02:33:04;7.60;;;2.00;;
59093;SDS011;44880;52.814;18.270;2023-04-03T02:35:36;7.80;;;2.20;;
59093;SDS011;44880;52.814;18.270;2023-04-03T02:38:10;9.90;;;2.00;;
59093;SDS011;44880;52.814;18.270;2023-04-03T02:40:41;7.90;;;2.00;;
59093;SDS011;44880;52.814;18.270;2023-04-03T02:43:13;10.30;;;2.30;;
59093;SDS011;44880;52.814;18.270;2023-04-03T02:45:45;9.70;;;2.40;;
59093;SDS011;44880;52.814;18.270;2023-04-03T02:48:16;8.40;;;2.30;;
59093;SDS011;44880;52.814;18.270;2023-04-03T02:50:48;12.40;;;3.00;;
59093;SDS011;44880;52.814;18.270;2023-04-03T02:53:20;9.50;;;2.60;;
59093;SDS011;44880;52.814;18.270;2023-04-03T02:55:51;10.70;;;2.20;;
59093;SDS011;44880;52.814;18.270;2023-04-03T02:58:23;13.20;;;2.20;;
59093;SDS011;44880;52.814;18.270;2023-04-03T03:00:56;8.10;;;2.30;;
59093;SDS011;44880;52.814;18.270;2023-04-03T03:03:27;7.20;;;2.30;;
59093;SDS011;44880;52.814;18.270;2023-04-03T03:06:03;8.70;;;2.20;;
59093;SDS011;44880;52.814;18.270;2023-04-03T03:08:36;8.80;;;2.50;;
59093;SDS011;44880;52.814;18.270;2023-04-03T03:13:38;10.30;;;2.40;;
59093;SDS011;44880;52.814;18.270;2023-04-03T03:16:10;8.90;;;2.40;;
59093;SDS011;44880;52.814;18.270;2023-04-03T03:18:42;9.00;;;2.50;;
59093;SDS011;44880;52.814;18.270;2023-04-03T03:21:13;11.60;;;2.70;;
59093;SDS011;44880;52.814;18.270;2023-04-03T03:23:45;6.80;;;1.90;;
59093;SDS011;44880;52.814;18.270;2023-04-03T03:26:17;9.80;;;1.80;;
59093;SDS011;44880;52.814;18.270;2023-04-03T03:28:49;10.20;;;2.50;;
59093;SDS011;44880;52.814;18.270;2023-04-03T03:31:20;10.20;;;2.60;;
59093;SDS011;44880;52.814;18.270;2023-04-03T03:33:52;10.20;;;2.40;;
59093;SDS011;44880;52.814;18.270;2023-04-03T03:38:54;9.70;;;2.10;;
59093;SDS011;44880;52.814;18.270;2023-04-03T03:41:26;7.80;;;2.20;;
59093;SDS011;44880;52.814;18.270;2023-04-03T03:43:57;7.60;;;2.10;;
59093;SDS011;44880;52.814;18.270;2023-04-03T03:46:30;8.70;;;2.20;;
59093;SDS011;44880;52.814;18.270;2023-04-03T03:49:02;11.90;;;2.20;;
59093;SDS011;44880;52.814;18.270;2023-04-03T03:51:34;9.70;;;3.00;;
59093;SDS011;44880;52.814;18.270;2023-04-03T03:54:07;12.00;;;2.70;;
59093;SDS011;44880;52.814;18.270;2023-04-03T03:56:40;8.40;;;1.90;;
59093;SDS011;44880;52.814;18.270;2023-04-03T03:59:12;8.70;;;2.70;;
59093;SDS011;44880;52.814;18.270;2023-04-03T04:01:45;10.10;;;2.20;;
59093;SDS011;44880;52.814;18.270;2023-04-03T04:04:16;7.10;;;2.10;;
59093;SDS011;44880;52.814;18.270;2023-04-03T04:06:48;7.80;;;2.10;;
59093;SDS011;44880;52.814;18.270;2023-04-03T04:09:20;11.70;;;2.20;;
59093;SDS011;44880;52.814;18.270;2023-04-03T04:11:52;8.40;;;1.90;;
59093;SDS011;44880;52.814;18.270;2023-04-03T04:14:24;9.80;;;2.10;;
59093;SDS011;44880;52.814;18.270;2023-04-03T04:19:27;6.40;;;1.90;;
59093;SDS011;44880;52.814;18.270;2023-04-03T04:21:59;7.90;;;2.20;;
59093;SDS011;44880;52.814;18.270;2023-04-03T04:24:32;8.90;;;2.00;;
59093;SDS011;44880;52.814;18.270;2023-04-03T04:27:04;8.40;;;1.80;;
59093;SDS011;44880;52.814;18.270;2023-04-03T04:29:36;7.30;;;1.90;;
59093;SDS011;44880;52.814;18.270;2023-04-03T04:32:08;9.90;;;2.10;;
59093;SDS011;44880;52.814;18.270;2023-04-03T04:37:10;8.00;;;2.00;;
59093;SDS011;44880;52.814;18.270;2023-04-03T04:39:42;9.70;;;2.30;;
59093;SDS011;44880;52.814;18.270;2023-04-03T04:42:14;8.50;;;2.20;;
59093;SDS011;44880;52.814;18.270;2023-04-03T04:44:46;7.50;;;1.90;;
59093;SDS011;44880;52.814;18.270;2023-04-03T04:47:18;9.60;;;2.20;;
59093;SDS011;44880;52.814;18.270;2023-04-03T04:49:51;9.60;;;2.60;;
59093;SDS011;44880;52.814;18.270;2023-04-03T04:52:23;10.50;;;3.20;;
59093;SDS011;44880;52.814;18.270;2023-04-03T04:54:55;12.40;;;3.40;;
59093;SDS011;44880;52.814;18.270;2023-04-03T04:59:58;8.20;;;3.00;;
59093;SDS011;44880;52.814;18.270;2023-04-03T05:02:31;14.40;;;4.10;;
59093;SDS011;44880;52.814;18.270;2023-04-03T05:05:04;16.30;;;4.10;;
59093;SDS011;44880;52.814;18.270;2023-04-03T05:07:37;10.60;;;2.80;;
59093;SDS011;44880;52.814;18.270;2023-04-03T05:10:10;8.70;;;2.30;;
59093;SDS011;44880;52.814;18.270;2023-04-03T05:12:46;9.90;;;2.30;;
59093;SDS011;44880;52.814;18.270;2023-04-03T05:15:32;13.70;;;3.40;;
59093;SDS011;44880;52.814;18.270;2023-04-03T05:18:05;11.30;;;3.50;;
59093;SDS011;44880;52.814;18.270;2023-04-03T05:20:38;9.30;;;2.70;;
59093;SDS011;44880;52.814;18.270;2023-04-03T05:23:19;11.40;;;3.00;;
59093;SDS011;44880;52.814;18.270;2023-04-03T05:25:51;10.10;;;3.10;;
59093;SDS011;44880;52.814;18.270;2023-04-03T05:28:24;9.80;;;2.60;;
59093;SDS011;44880;52.814;18.270;2023-04-03T05:31:15;9.00;;;2.40;;
59093;SDS011;44880;52.814;18.270;2023-04-03T05:33:47;9.00;;;2.40;;
59093;SDS011;44880;52.814;18.270;2023-04-03T05:39:09;10.00;;;2.80;;
59093;SDS011;44880;52.814;18.270;2023-04-03T05:41:43;8.50;;;2.50;;
59093;SDS011;44880;52.814;18.270;2023-04-03T05:46:46;10.20;;;2.30;;
59093;SDS011;44880;52.814;18.270;2023-04-03T05:49:18;10.20;;;2.70;;
59093;SDS011;44880;52.814;18.270;2023-04-03T05:54:28;8.60;;;2.30;;
59093;SDS011;44880;52.814;18.270;2023-04-03T05:57:20;9.40;;;2.20;;
59093;SDS011;44880;52.814;18.270;2023-04-03T05:59:53;9.10;;;3.20;;
59093;SDS011;44880;52.814;18.270;2023-04-03T06:02:34;7.50;;;2.20;;
59093;SDS011;44880;52.814;18.270;2023-04-03T06:05:07;8.90;;;2.20;;
59093;SDS011;44880;52.814;18.270;2023-04-03T06:07:42;9.70;;;2.10;;
59093;SDS011;44880;52.814;18.270;2023-04-03T06:10:14;7.60;;;1.90;;
59093;SDS011;44880;52.814;18.270;2023-04-03T06:12:55;8.70;;;1.90;;
59093;SDS011;44880;52.814;18.270;2023-04-03T06:15:34;8.70;;;2.40;;
59093;SDS011;44880;52.814;18.270;2023-04-03T06:21:07;9.60;;;1.90;;
59093;SDS011;44880;52.814;18.270;2023-04-03T06:23:41;7.30;;;1.80;;
59093;SDS011;44880;52.814;18.270;2023-04-03T06:26:27;8.70;;;2.20;;
59093;SDS011;44880;52.814;18.270;2023-04-03T06:31:29;8.90;;;1.80;;
59093;SDS011;44880;52.814;18.270;2023-04-03T06:34:07;6.40;;;1.80;;
59093;SDS011;44880;52.814;18.270;2023-04-03T06:36:39;8.60;;;1.80;;
59093;SDS011;44880;52.814;18.270;2023-04-03T06:39:13;8.40;;;1.90;;
59093;SDS011;44880;52.814;18.270;2023-04-03T06:41:46;7.90;;;1.50;;
59093;SDS011;44880;52.814;18.270;2023-04-03T06:44:36;6.80;;;2.20;;
59093;SDS011;44880;52.814;18.270;2023-04-03T06:47:08;4.20;;;1.40;;
59093;SDS011;44880;52.814;18.270;2023-04-03T06:49:49;7.10;;;1.60;;
59093;SDS011;44880;52.814;18.270;2023-04-03T06:52:21;7.70;;;1.40;;
59093;SDS011;44880;52.814;18.270;2023-04-03T06:54:54;7.00;;;1.50;;
59093;SDS011;44880;52.814;18.270;2023-04-03T06:57:33;5.80;;;2.00;;
59093;SDS011;44880;52.814;18.270;2023-04-03T07:00:16;10.40;;;1.90;;
59093;SDS011;44880;52.814;18.270;2023-04-03T07:02:49;6.50;;;1.40;;
59093;SDS011;44880;52.814;18.270;2023-04-03T07:05:58;7.10;;;1.60;;
59093;SDS011;44880;52.814;18.270;2023-04-03T07:08:37;6.30;;;1.80;;
59093;SDS011;44880;52.814;18.270;2023-04-03T07:11:27;6.10;;;1.50;;
59093;SDS011;44880;52.814;18.270;2023-04-03T07:13:58;6.70;;;1.60;;
59093;SDS011;44880;52.814;18.270;2023-04-03T07:16:30;8.30;;;1.80;;
59093;SDS011;44880;52.814;18.270;2023-04-03T07:19:25;7.80;;;1.90;;
59093;SDS011;44880;52.814;18.270;2023-04-03T07:21:57;7.50;;;1.90;;
59093;SDS011;44880;52.814;18.270;2023-04-03T07:24:59;5.70;;;1.70;;
59093;SDS011;44880;52.814;18.270;2023-04-03T07:27:31;7.70;;;2.00;;
59093;SDS011;44880;52.814;18.270;2023-04-03T07:32:55;8.00;;;2.20;;
59093;SDS011;44880;52.814;18.270;2023-04-03T07:35:26;7.70;;;2.10;;
59093;SDS011;44880;52.814;18.270;2023-04-03T07:40:52;7.40;;;2.30;;
59093;SDS011;44880;52.814;18.270;2023-04-03T07:43:29;8.20;;;2.00;;
59093;SDS011;44880;52.814;18.270;2023-04-03T07:46:11;7.30;;;2.60;;
59093;SDS011;44880;52.814;18.270;2023-04-03T07:48:42;7.40;;;2.20;;
59093;SDS011;44880;52.814;18.270;2023-04-03T07:51:14;7.20;;;1.90;;
59093;SDS011;44880;52.814;18.270;2023-04-03T07:54:03;8.00;;;2.20;;
59093;SDS011;44880;52.814;18.270;2023-04-03T07:56:35;7.70;;;2.20;;
59093;SDS011;44880;52.814;18.270;2023-04-03T07:59:07;7.80;;;2.10;;
59093;SDS011;44880;52.814;18.270;2023-04-03T08:02:00;7.90;;;2.00;;
59093;SDS011;44880;52.814;18.270;2023-04-03T08:04:33;6.80;;;1.80;;
59093;SDS011;44880;52.814;18.270;2023-04-03T08:07:10;6.30;;;1.70;;
59093;SDS011;44880;52.814;18.270;2023-04-03T08:10:01;6.90;;;2.80;;
59093;SDS011;44880;52.814;18.270;2023-04-03T08:12:33;7.30;;;1.80;;
59093;SDS011;44880;52.814;18.270;2023-04-03T08:18:01;6.90;;;1.70;;
59093;SDS011;44880;52.814;18.270;2023-04-03T08:23:22;5.60;;;1.60;;
59093;SDS011;44880;52.814;18.270;2023-04-03T08:28:24;6.10;;;1.90;;
59093;SDS011;44880;52.814;18.270;2023-04-03T08:31:18;6.50;;;1.70;;
59093;SDS011;44880;52.814;18.270;2023-04-03T08:33:50;5.30;;;1.60;;
59093;SDS011;44880;52.814;18.270;2023-04-03T08:36:27;6.90;;;2.10;;
59093;SDS011;44880;52.814;18.270;2023-04-03T08:39:23;6.70;;;1.60;;
59093;SDS011;44880;52.814;18.270;2023-04-03T08:41:56;6.80;;;1.50;;
59093;SDS011;44880;52.814;18.270;2023-04-03T08:44:47;6.90;;;1.80;;
59093;SDS011;44880;52.814;18.270;2023-04-03T08:47:22;6.20;;;1.90;;
59093;SDS011;44880;52.814;18.270;2023-04-03T08:53:00;5.40;;;1.50;;
59093;SDS011;44880;52.814;18.270;2023-04-03T08:55:37;5.90;;;1.50;;
59093;SDS011;44880;52.814;18.270;2023-04-03T08:58:29;6.40;;;1.70;;
59093;SDS011;44880;52.814;18.270;2023-04-03T09:01:03;7.50;;;1.60;;
59093;SDS011;44880;52.814;18.270;2023-04-03T09:04:09;9.00;;;1.60;;
59093;SDS011;44880;52.814;18.270;2023-04-03T09:06:42;6.40;;;1.90;;
59093;SDS011;44880;52.814;18.270;2023-04-03T09:09:45;7.30;;;1.80;;
59093;SDS011;44880;52.814;18.270;2023-04-03T09:12:20;5.20;;;1.60;;
59093;SDS011;44880;52.814;18.270;2023-04-03T13:14:25;6.00;;;1.70;;
59093;SDS011;44880;52.814;18.270;2023-04-03T13:16:58;5.90;;;1.60;;
59093;SDS011;44880;52.814;18.270;2023-04-03T13:19:42;7.60;;;1.80;;
59093;SDS011;44880;52.814;18.270;2023-04-03T13:22:29;5.50;;;1.60;;
59093;SDS011;44880;52.814;18.270;2023-04-03T13:33:54;6.20;;;1.80;;
59093;SDS011;44880;52.814;18.270;2023-04-03T13:43:00;4.90;;;1.40;;
59093;SDS011;44880;52.814;18.270;2023-04-03T13:46:22;6.10;;;1.60;;
59093;SDS011;44880;52.814;18.270;2023-04-03T13:49:33;7.00;;;1.90;;
59093;SDS011;44880;52.814;18.270;2023-04-03T13:55:15;5.80;;;1.50;;
59093;SDS011;44880;52.814;18.270;2023-04-03T14:00:54;5.50;;;1.50;;
59093;SDS011;44880;52.814;18.270;2023-04-03T14:06:30;4.80;;;1.50;;
59093;SDS011;44880;52.814;18.270;2023-04-03T14:12:02;6.10;;;1.60;;
59093;SDS011;44880;52.814;18.270;2023-04-03T14:17:48;6.80;;;1.80;;
59093;SDS011;44880;52.814;18.270;2023-04-03T14:23:21;5.60;;;1.90;;
59093;SDS011;44880;52.814;18.270;2023-04-03T14:32:23;4.80;;;1.40;;
59093;SDS011;44880;52.814;18.270;2023-04-03T14:37:59;5.20;;;1.40;;
59093;SDS011;44880;52.814;18.270;2023-04-03T14:43:50;7.40;;;2.00;;
59093;SDS011;44880;52.814;18.270;2023-04-03T14:47:01;6.60;;;1.60;;
59093;SDS011;44880;52.814;18.270;2023-04-03T14:49:34;6.30;;;1.50;;
59093;SDS011;44880;52.814;18.270;2023-04-03T14:58:29;5.70;;;1.60;;
59093;SDS011;44880;52.814;18.270;2023-04-03T15:01:28;6.10;;;1.90;;
59093;SDS011;44880;52.814;18.270;2023-04-03T15:04:00;5.50;;;1.80;;
59093;SDS011;44880;52.814;18.270;2023-04-03T15:09:31;5.40;;;1.50;;
59093;SDS011;44880;52.814;18.270;2023-04-03T15:15:07;7.50;;;2.10;;
59093;SDS011;44880;52.814;18.270;2023-04-03T15:20:45;6.40;;;1.90;;
59093;SDS011;44880;52.814;18.270;2023-04-03T15:26:16;7.00;;;1.80;;
59093;SDS011;44880;52.814;18.270;2023-04-03T15:28:48;6.10;;;1.70;;
59093;SDS011;44880;52.814;18.270;2023-04-03T15:34:21;6.40;;;2.10;;
59093;SDS011;44880;52.814;18.270;2023-04-03T15:40:00;7.30;;;2.50;;
59093;SDS011;44880;52.814;18.270;2023-04-03T15:42:46;9.80;;;2.40;;
59093;SDS011;44880;52.814;18.270;2023-04-03T15:45:32;7.60;;;2.20;;
59093;SDS011;44880;52.814;18.270;2023-04-03T15:51:09;7.20;;;2.10;;
59093;SDS011;44880;52.814;18.270;2023-04-03T15:53:41;6.40;;;1.80;;
59093;SDS011;44880;52.814;18.270;2023-04-03T15:56:54;7.40;;;1.70;;
59093;SDS011;44880;52.814;18.270;2023-04-03T16:06:04;6.50;;;1.80;;
59093;SDS011;44880;52.814;18.270;2023-04-03T16:09:09;6.40;;;1.80;;
59093;SDS011;44880;52.814;18.270;2023-04-03T16:11:42;6.80;;;2.00;;
59093;SDS011;44880;52.814;18.270;2023-04-03T16:14:50;5.50;;;1.50;;
59093;SDS011;44880;52.814;18.270;2023-04-03T16:20:21;7.60;;;1.90;;
59093;SDS011;44880;52.814;18.270;2023-04-03T16:28:21;8.10;;;2.20;;
59093;SDS011;44880;52.814;18.270;2023-04-03T16:34:11;5.30;;;1.60;;
59093;SDS011;44880;52.814;18.270;2023-04-03T16:37:26;6.80;;;2.20;;
59093;SDS011;44880;52.814;18.270;2023-04-03T16:43:04;8.40;;;2.30;;
59093;SDS011;44880;52.814;18.270;2023-04-03T16:48:41;8.00;;;2.40;;
59093;SDS011;44880;52.814;18.270;2023-04-03T16:54:20;6.20;;;1.80;;
59093;SDS011;44880;52.814;18.270;2023-04-03T16:59:56;9.60;;;2.60;;
59093;SDS011;44880;52.814;18.270;2023-04-03T17:05:39;8.00;;;2.50;;
59093;SDS011;44880;52.814;18.270;2023-04-03T17:14:37;7.20;;;2.20;;
59093;SDS011;44880;52.814;18.270;2023-04-03T17:17:09;5.80;;;1.80;;
59093;SDS011;44880;52.814;18.270;2023-04-03T17:19:42;6.70;;;1.80;;
59093;SDS011;44880;52.814;18.270;2023-04-03T17:22:15;6.80;;;1.60;;
59093;SDS011;44880;52.814;18.270;2023-04-03T17:24:47;6.90;;;2.20;;
59093;SDS011;44880;52.814;18.270;2023-04-03T17:27:20;7.00;;;2.00;;
59093;SDS011;44880;52.814;18.270;2023-04-03T17:29:52;6.80;;;2.00;;
59093;SDS011;44880;52.814;18.270;2023-04-03T17:32:25;8.10;;;2.00;;
59093;SDS011;44880;52.814;18.270;2023-04-03T17:34:56;7.40;;;2.10;;
59093;SDS011;44880;52.814;18.270;2023-04-03T17:37:30;7.90;;;2.20;;
59093;SDS011;44880;52.814;18.270;2023-04-03T17:40:05;8.60;;;2.40;;
59093;SDS011;44880;52.814;18.270;2023-04-03T17:42:45;7.20;;;2.40;;
59093;SDS011;44880;52.814;18.270;2023-04-03T17:45:18;9.60;;;2.50;;
59093;SDS011;44880;52.814;18.270;2023-04-03T17:47:51;6.90;;;2.40;;
59093;SDS011;44880;52.814;18.270;2023-04-03T17:50:26;6.60;;;2.30;;
59093;SDS011;44880;52.814;18.270;2023-04-03T17:52:59;7.80;;;2.50;;
59093;SDS011;44880;52.814;18.270;2023-04-03T17:55:33;10.00;;;3.10;;
59093;SDS011;44880;52.814;18.270;2023-04-03T17:58:09;7.70;;;2.30;;
59093;SDS011;44880;52.814;18.270;2023-04-03T18:00:41;7.30;;;2.30;;
59093;SDS011;44880;52.814;18.270;2023-04-03T18:03:14;9.50;;;2.60;;
59093;SDS011;44880;52.814;18.270;2023-04-03T18:05:52;8.10;;;2.80;;
59093;SDS011;44880;52.814;18.270;2023-04-03T18:08:24;7.20;;;2.50;;
59093;SDS011;44880;52.814;18.270;2023-04-03T18:10:59;7.40;;;2.30;;
59093;SDS011;44880;52.814;18.270;2023-04-03T18:13:32;8.40;;;2.40;;
59093;SDS011;44880;52.814;18.270;2023-04-03T18:16:07;7.40;;;2.20;;
59093;SDS011;44880;52.814;18.270;2023-04-03T18:18:43;8.10;;;2.40;;
59093;SDS011;44880;52.814;18.270;2023-04-03T18:21:15;7.10;;;2.20;;
59093;SDS011;44880;52.814;18.270;2023-04-03T18:23:49;7.70;;;2.30;;
59093;SDS011;44880;52.814;18.270;2023-04-03T18:26:25;7.50;;;2.70;;
59093;SDS011;44880;52.814;18.270;2023-04-03T18:29:03;7.10;;;2.10;;
59093;SDS011;44880;52.814;18.270;2023-04-03T18:31:43;8.40;;;2.10;;
59093;SDS011;44880;52.814;18.270;2023-04-03T18:34:28;8.80;;;2.70;;
59093;SDS011;44880;52.814;18.270;2023-04-03T18:37:04;11.20;;;3.10;;
59093;SDS011;44880;52.814;18.270;2023-04-03T18:39:43;9.30;;;3.20;;
59093;SDS011;44880;52.814;18.270;2023-04-03T18:42:17;8.60;;;2.60;;
59093;SDS011;44880;52.814;18.270;2023-04-03T18:44:53;8.00;;;2.10;;
59093;SDS011;44880;52.814;18.270;2023-04-03T18:47:28;7.20;;;2.30;;
59093;SDS011;44880;52.814;18.270;2023-04-03T18:50:03;7.90;;;2.50;;
59093;SDS011;44880;52.814;18.270;2023-04-03T18:52:38;7.20;;;2.30;;
59093;SDS011;44880;52.814;18.270;2023-04-03T18:55:12;8.40;;;2.50;;
59093;SDS011;44880;52.814;18.270;2023-04-03T18:57:48;8.40;;;2.60;;
59093;SDS011;44880;52.814;18.270;2023-04-03T19:00:26;8.70;;;2.30;;
59093;SDS011;44880;52.814;18.270;2023-04-03T19:03:01;8.60;;;2.80;;
59093;SDS011;44880;52.814;18.270;2023-04-03T19:05:38;9.00;;;3.00;;
59093;SDS011;44880;52.814;18.270;2023-04-03T19:08:12;9.00;;;3.20;;
59093;SDS011;44880;52.814;18.270;2023-04-03T19:10:47;8.00;;;2.60;;
59093;SDS011;44880;52.814;18.270;2023-04-03T19:13:26;8.30;;;3.10;;
59093;SDS011;44880;52.814;18.270;2023-04-03T19:16:00;7.30;;;2.70;;
59093;SDS011;44880;52.814;18.270;2023-04-03T19:18:35;8.30;;;2.90;;
59093;SDS011;44880;52.814;18.270;2023-04-03T19:21:10;7.80;;;2.50;;
59093;SDS011;44880;52.814;18.270;2023-04-03T19:23:43;9.10;;;3.40;;
59093;SDS011;44880;52.814;18.270;2023-04-03T19:26:19;10.30;;;3.30;;
59093;SDS011;44880;52.814;18.270;2023-04-03T19:28:54;8.90;;;3.00;;
59093;SDS011;44880;52.814;18.270;2023-04-03T19:31:35;8.50;;;3.30;;
59093;SDS011;44880;52.814;18.270;2023-04-03T19:34:12;8.70;;;3.30;;
59093;SDS011;44880;52.814;18.270;2023-04-03T19:36:48;9.20;;;2.90;;
59093;SDS011;44880;52.814;18.270;2023-04-03T19:39:24;9.30;;;3.20;;
59093;SDS011;44880;52.814;18.270;2023-04-03T19:42:01;7.40;;;2.50;;
59093;SDS011;44880;52.814;18.270;2023-04-03T19:44:36;9.40;;;3.20;;
59093;SDS011;44880;52.814;18.270;2023-04-03T19:47:11;9.80;;;2.80;;
59093;SDS011;44880;52.814;18.270;2023-04-03T19:49:48;12.30;;;4.50;;
59093;SDS011;44880;52.814;18.270;2023-04-03T19:52:23;9.60;;;3.30;;
59093;SDS011;44880;52.814;18.270;2023-04-03T19:54:56;10.30;;;3.10;;
59093;SDS011;44880;52.814;18.270;2023-04-03T19:57:32;9.80;;;2.90;;
59093;SDS011;44880;52.814;18.270;2023-04-03T20:00:08;9.60;;;3.00;;
59093;SDS011;44880;52.814;18.270;2023-04-03T20:02:42;9.50;;;3.40;;
59093;SDS011;44880;52.814;18.270;2023-04-03T20:05:17;8.50;;;2.70;;
59093;SDS011;44880;52.814;18.270;2023-04-03T20:07:54;8.00;;;2.90;;
59093;SDS011;44880;52.814;18.270;2023-04-03T20:10:27;10.10;;;3.40;;
59093;SDS011;44880;52.814;18.270;2023-04-03T20:13:01;9.80;;;3.10;;
59093;SDS011;44880;52.814;18.270;2023-04-03T20:15:37;10.20;;;3.20;;
59093;SDS011;44880;52.814;18.270;2023-04-03T20:18:11;8.60;;;3.10;;
59093;SDS011;44880;52.814;18.270;2023-04-03T20:20:50;10.90;;;4.00;;
59093;SDS011;44880;52.814;18.270;2023-04-03T20:23:27;12.80;;;4.50;;
59093;SDS011;44880;52.814;18.270;2023-04-03T20:26:00;11.10;;;4.50;;
59093;SDS011;44880;52.814;18.270;2023-04-03T20:28:33;12.90;;;4.50;;
59093;SDS011;44880;52.814;18.270;2023-04-03T20:31:06;9.90;;;3.80;;
59093;SDS011;44880;52.814;18.270;2023-04-03T20:33:40;10.30;;;4.00;;
59093;SDS011;44880;52.814;18.270;2023-04-03T20:36:14;10.60;;;3.90;;
59093;SDS011;44880;52.814;18.270;2023-04-03T20:38:47;13.60;;;3.80;;
59093;SDS011;44880;52.814;18.270;2023-04-03T20:41:20;9.30;;;3.50;;
59093;SDS011;44880;52.814;18.270;2023-04-03T20:43:53;11.20;;;3.50;;
59093;SDS011;44880;52.814;18.270;2023-04-03T20:46:26;10.10;;;3.70;;
59093;SDS011;44880;52.814;18.270;2023-04-03T20:48:58;9.80;;;3.50;;
59093;SDS011;44880;52.814;18.270;2023-04-03T20:54:00;9.80;;;3.10;;
59093;SDS011;44880;52.814;18.270;2023-04-03T20:59:02;8.60;;;2.60;;
59093;SDS011;44880;52.814;18.270;2023-04-03T21:01:34;9.50;;;3.20;;
59093;SDS011;44880;52.814;18.270;2023-04-03T21:04:07;11.50;;;3.70;;
59093;SDS011;44880;52.814;18.270;2023-04-03T21:21:19;9.80;;;3.30;;
59093;SDS011;44880;52.814;18.270;2023-04-03T21:23:52;8.90;;;2.90;;
59093;SDS011;44880;52.814;18.270;2023-04-03T21:26:25;10.30;;;3.90;;
59093;SDS011;44880;52.814;18.270;2023-04-03T21:28:57;9.40;;;3.20;;
59093;SDS011;44880;52.814;18.270;2023-04-03T21:34:37;10.70;;;3.20;;
59093;SDS011;44880;52.814;18.270;2023-04-03T21:37:09;10.70;;;3.60;;
59093;SDS011;44880;52.814;18.270;2023-04-03T21:39:41;8.80;;;3.00;;
59093;SDS011;44880;52.814;18.270;2023-04-03T21:42:13;11.60;;;3.80;;
59093;SDS011;44880;52.814;18.270;2023-04-03T21:47:15;9.90;;;2.50;;
59093;SDS011;44880;52.814;18.270;2023-04-03T21:49:48;10.90;;;3.00;;
59093;SDS011;44880;52.814;18.270;2023-04-03T21:52:20;10.70;;;3.00;;
59093;SDS011;44880;52.814;18.270;2023-04-03T21:54:53;7.10;;;2.20;;
59093;SDS011;44880;52.814;18.270;2023-04-03T21:57:24;9.80;;;2.90;;
59093;SDS011;44880;52.814;18.270;2023-04-03T21:59:56;9.60;;;2.90;;
59093;SDS011;44880;52.814;18.270;2023-04-03T22:02:28;9.60;;;2.70;;
59093;SDS011;44880;52.814;18.270;2023-04-03T22:05:00;9.50;;;3.20;;
59093;SDS011;44880;52.814;18.270;2023-04-03T22:10:03;10.30;;;3.50;;
59093;SDS011;44880;52.814;18.270;2023-04-03T22:12:35;9.20;;;3.20;;
59093;SDS011;44880;52.814;18.270;2023-04-03T22:15:08;8.60;;;2.80;;
59093;SDS011;44880;52.814;18.270;2023-04-03T22:17:41;10.10;;;2.70;;
59093;SDS011;44880;52.814;18.270;2023-04-03T22:22:43;8.80;;;2.40;;
59093;SDS011;44880;52.814;18.270;2023-04-03T22:25:15;9.30;;;3.90;;
59093;SDS011;44880;52.814;18.270;2023-04-03T22:27:46;9.20;;;2.70;;
59093;SDS011;44880;52.814;18.270;2023-04-03T22:30:18;8.60;;;2.60;;
59093;SDS011;44880;52.814;18.270;2023-04-03T22:32:50;9.50;;;2.80;;
59093;SDS011;44880;52.814;18.270;2023-04-03T22:35:21;10.00;;;2.60;;
59093;SDS011;44880;52.814;18.270;2023-04-03T22:37:54;10.90;;;2.90;;
59093;SDS011;44880;52.814;18.270;2023-04-03T22:40:26;8.00;;;2.50;;
59093;SDS011;44880;52.814;18.270;2023-04-03T22:42:58;9.60;;;2.70;;
59093;SDS011;44880;52.814;18.270;2023-04-03T22:45:29;9.10;;;2.70;;
59093;SDS011;44880;52.814;18.270;2023-04-03T22:48:01;10.20;;;3.00;;